Crestview, FL

10:11 AM CDT on September 02, 2015 (GMT -0500)
Sikes | | Change Station
CLOSE
Current Station
Airport
Location: Crestview,
Elevation: 213 ft
Nearby Weather Stations

Elev 213 ft 30.78 °N, 86.52 °W | Updated 18 minutes ago

Clear
Clear
88 °F
Feels Like 92 °F
N
7
Wind Variable Wind from NW

Today
High -- | Low -- °F
--% Chance of Precip.
Yesterday
High -- | Low -- °F
Precip. -- in
6:22 AM 7:08 PM
Waning Gibbous, 79% visible
Pressure 30.08 in
Visibility 10.0 miles
Clouds Clear
Heat Index 92 °F
Dew Point 69 °F
Humidity 53%
Rainfall 0.00 in
Snow Depth Not available.
UV 6 out of 12
Pollen 8.00 out of 12
Air Quality Not available.
Flu Activity Not available.
METAR KCEW 021453Z AUTO 32006KT 10SM CLR 31/21 A3009 RMK AO2 SLP186 T03110206 50002
Pressure 30.08 in
Visibility 10.0 miles
Clouds Clear
Heat Index 92 °F
Dew Point 69 °F
Humidity 53%
Rainfall 0.00 in
Snow Depth Not available.
UV 6 out of 12
Pollen 8.00 out of 12
Air Quality Not available.
Flu Activity Not available.
METAR KCEW 021453Z AUTO 32006KT 10SM CLR 31/21 A3009 RMK AO2 SLP186 T03110206 50002

10-Day Weather Forecast

×

Almanac

Astronomy

Sep. 02, 2015 Rise Set
Actual Time
Civil Twilight
Nautical Twilight
Astronomical Twilight
Moon
Length of Visible Light
Length of Day
Tomorrow will be .
, % of the Moon is Illuminated

Today's Extremes

State Highs State Lows

Community

WunderPhotos

Upload Photos

1,851,769 photos uploaded!

WunderBlogs® & News

Nearby

Air Quality

  Air Quality AQ Index Pollutant
Not available.

Snow Depth

Station Depth Elevation

Earthquake Activity

City Distance Mag. Time & Date
Minimum magnitude displayed is 2.5.

Coastal Water Temperatures

Place Temperature

Stations

Nearby Weather Stations

Station Location Temp. Windchill Dew Point Humidity Wind Precip. Elev Updated Type